Falls Creek, Pennsylvania
Current Conditions -  °F | °C
As of 4:53 AM on Thursday 23 Oct 2014 (Local Time) from KDUJ Reporting Station
Overcast Overcast  
Wind Chill: 38°   Ceiling: 1500
Heat Index: 44°   Visibility: 10mi
Dew Point: 39°   Wind: 12mph
Humidity: 82%   Direction: 350°N
Pressure: 30.05"   Gusts: 21mph
Location:  41.15°N, 78.8°W
Report Text: KDUJ 230853Z AUTO 35010G18KT 10SM OVC015 07/04 A3005 RMK AO2 SLP181 T00670039 58003
Loading
Personal Weather Stations






























Interactive Weather Map
Tropical Storm Tracking
New forecast layout! Learn more

10-Day Weather Forecast

Advertisements
Track Severe Weather on mobile